UNTT/TOF METAR and TAF weather

Enter ICAO airport designator
Station Type Date Time Source
UNTT METAR 2019/06/26 05:30 UTC NOAA

UNTT 260530Z 17003MPS 9999 FEW045TCU 24/12 Q1013 R21/090060 NOSIG RMK QFE745


Station Type Date Time Source
UNTT Decoded METAR 2019/06/26 05:30 UTC NOAA

Station name not available
Jun 26, 2019 - 01:30 AM EDT / 2019.06.26 0530 UTC
Wind: from the S (170 degrees) at 7 MPH (6 KT):0
Visibility: greater than 7 mile(s):0
Sky conditions: mostly clear
Weather: Towering cumulus clouds observed
Temperature: 75 F (24 C)
Dew Point: 53 F (12 C)
Relative Humidity: 46%
Pressure (altimeter): 29.91 in. Hg (1013 hPa)
ob: UNTT 260530Z 17003MPS 9999 FEW045TCU 24/12 Q1013 R21/090060 NOSIG RMK QFE745
cycle: 5

Station Type Date Time Source
UNTT TAF UTC NOAA

Error!

Example: see airport list